Time;durP1;ratioP1;P1;durP2;ratioP2;P2;SDS_P1;SDS_P2;PMS_P1;PMS_P2;Temp;Humidity;BMP_temperature;BMP_pressure;BME280_temperature;BME280_humidity;BME280_pressure;Samples;Min_cycle;Max_cycle;Signal;HPM_P1;HPM_P2
2023/12/22 00:02:12;;;;;;;30.30;19.65;;;;;;;1.77;100.00;98342.13;4967581;28;20198;-78
2023/12/22 00:04:39;;;;;;;29.05;20.23;;;;;;;1.72;100.00;98345.03;4967700;28;20031;-78
2023/12/22 00:07:05;;;;;;;32.45;21.30;;;;;;;1.78;100.00;98341.97;4969168;28;20046;-78
2023/12/22 00:09:31;;;;;;;30.60;20.70;;;;;;;1.91;100.00;98347.91;4960695;28;20031;-78
2023/12/22 00:11:56;;;;;;;25.50;19.38;;;;;;;1.96;100.00;98324.94;4970204;28;20034;-78
2023/12/22 00:14:21;;;;;;;29.20;19.63;;;;;;;2.02;100.00;98328.84;4967651;28;20082;-79
2023/12/22 00:16:47;;;;;;;25.05;19.08;;;;;;;2.03;100.00;98331.34;4969254;28;20034;-79
2023/12/22 00:19:12;;;;;;;27.90;19.67;;;;;;;2.03;100.00;98336.53;4971492;28;20792;-77
2023/12/22 00:21:38;;;;;;;27.40;19.88;;;;;;;2.02;100.00;98345.28;4984046;28;20039;-78
2023/12/22 00:24:04;;;;;;;27.92;19.50;;;;;;;1.99;100.00;98368.13;4970974;28;20035;-79
2023/12/22 00:26:29;;;;;;;28.63;19.92;;;;;;;1.98;100.00;98359.50;4963881;28;20058;-78
2023/12/22 00:28:55;;;;;;;26.77;20.27;;;;;;;1.93;100.00;98366.81;4969573;28;20027;-78
2023/12/22 00:31:20;;;;;;;27.48;20.90;;;;;;;1.90;100.00;98356.63;4963834;28;20226;-77
2023/12/22 00:33:46;;;;;;;32.00;20.63;;;;;;;1.93;100.00;98372.03;4967229;28;20027;-79
2023/12/22 00:36:12;;;;;;;30.77;20.27;;;;;;;1.96;100.00;98366.56;4965444;28;20039;-78
2023/12/22 00:38:37;;;;;;;29.23;20.67;;;;;;;1.93;100.00;98374.63;4964997;28;20394;-79
2023/12/22 00:41:03;;;;;;;26.88;19.70;;;;;;;1.94;100.00;98363.28;4965646;28;20486;-79
2023/12/22 00:43:28;;;;;;;32.13;20.00;;;;;;;1.98;100.00;98384.69;4966265;28;20023;-79
2023/12/22 00:45:53;;;;;;;31.63;20.27;;;;;;;2.01;100.00;98338.44;4963104;28;21091;-78
2023/12/22 00:48:19;;;;;;;28.95;20.52;;;;;;;2.05;100.00;98339.03;4969858;28;20121;-78
2023/12/22 00:50:44;;;;;;;26.48;19.65;;;;;;;2.02;100.00;98318.44;4964792;28;20386;-79
2023/12/22 00:53:10;;;;;;;29.88;20.25;;;;;;;2.06;100.00;98336.28;4962450;28;20070;-79
2023/12/22 00:55:35;;;;;;;26.33;19.33;;;;;;;2.13;100.00;98320.19;4965308;28;20069;-79
2023/12/22 00:58:00;;;;;;;28.48;20.85;;;;;;;2.17;100.00;98321.63;4964432;28;20115;-78
2023/12/22 01:00:26;;;;;;;29.02;19.65;;;;;;;2.10;100.00;98315.25;4965943;28;20031;-78
2023/12/22 01:02:51;;;;;;;28.27;20.15;;;;;;;2.13;100.00;98331.44;4966206;28;20049;-77
2023/12/22 01:05:17;;;;;;;23.25;18.23;;;;;;;2.17;100.00;98326.84;4969509;28;20038;-78
2023/12/22 01:07:42;;;;;;;29.27;19.60;;;;;;;2.22;100.00;98329.91;4964763;28;20074;-78
2023/12/22 01:10:09;;;;;;;25.30;17.83;;;;;;;2.25;100.00;98347.88;4966266;28;20416;-78
2023/12/22 01:12:34;;;;;;;24.45;18.55;;;;;;;2.15;100.00;98370.38;4966752;28;20491;-78
2023/12/22 01:15:00;;;;;;;28.38;20.98;;;;;;;2.04;100.00;98358.19;4967119;28;20078;-76
2023/12/22 01:17:25;;;;;;;26.70;20.10;;;;;;;1.93;100.00;98351.22;4965526;28;20031;-79
2023/12/22 01:19:51;;;;;;;28.05;19.08;;;;;;;1.96;100.00;98350.97;4965578;28;20047;-78
2023/12/22 01:22:16;;;;;;;29.75;19.88;;;;;;;1.97;100.00;98347.44;4965919;28;20118;-78
2023/12/22 01:24:43;;;;;;;29.65;20.50;;;;;;;1.95;100.00;98364.91;4966014;28;20061;-78
2023/12/22 01:27:09;;;;;;;28.15;19.17;;;;;;;1.92;100.00;98367.75;4966434;28;20035;-78
2023/12/22 01:29:35;;;;;;;29.13;18.88;;;;;;;1.99;100.00;98355.94;4966794;28;20031;-79
2023/12/22 01:32:00;;;;;;;24.45;19.13;;;;;;;2.08;100.00;98356.16;4965215;28;20523;-78
2023/12/22 01:34:26;;;;;;;26.65;19.10;;;;;;;2.13;100.00;98361.84;4967912;28;20126;-77
2023/12/22 01:36:51;;;;;;;28.17;18.60;;;;;;;2.15;100.00;98367.75;4962259;28;21051;-78
2023/12/22 01:39:17;;;;;;;27.63;18.92;;;;;;;2.23;100.00;98370.59;4970039;28;20046;-78
2023/12/22 01:41:42;;;;;;;23.52;17.65;;;;;;;2.28;100.00;98382.31;4963629;28;20439;-79
2023/12/22 01:44:08;;;;;;;25.52;17.33;;;;;;;2.35;100.00;98359.25;4964881;28;20453;-80
2023/12/22 01:46:34;;;;;;;25.15;17.23;;;;;;;2.45;100.00;98363.59;4967711;28;20396;-78
2023/12/22 01:49:03;;;;;;;21.27;15.68;;;;;;;2.54;100.00;98369.84;4966717;28;20395;-78
2023/12/22 01:51:33;;;;;;;20.15;15.05;;;;;;;2.64;100.00;98376.00;4964795;28;20031;-76
2023/12/22 01:53:59;;;;;;;21.15;14.55;;;;;;;2.71;100.00;98369.31;4982696;28;20070;-77
2023/12/22 01:56:25;;;;;;;19.80;13.60;;;;;;;2.84;100.00;98375.22;4965992;28;20042;-77
2023/12/22 01:58:55;;;;;;;17.42;10.90;;;;;;;3.15;100.00;98377.94;4966757;28;20054;-77
2023/12/22 02:01:22;;;;;;;23.55;16.05;;;;;;;3.19;100.00;98385.38;4965769;28;20035;-78
2023/12/22 02:03:54;;;;;;;18.70;13.40;;;;;;;3.22;100.00;98376.50;4967622;28;20098;-79
2023/12/22 02:06:20;;;;;;;16.48;11.63;;;;;;;3.49;100.00;98371.63;4969933;28;20038;-78
2023/12/22 02:08:48;;;;;;;11.10;8.88;;;;;;;3.92;100.00;98362.81;4968884;28;20023;-76
2023/12/22 02:11:14;;;;;;;20.30;14.32;;;;;;;3.80;100.00;98362.06;4971032;28;20039;-79
2023/12/22 02:13:41;;;;;;;17.92;12.93;;;;;;;3.68;100.00;98358.69;4970233;28;20475;-78
2023/12/22 02:16:51;;;;;;;13.00;11.13;;;;;;;3.71;100.00;98366.25;4970570;28;20491;-77
2023/12/22 02:19:42;;;;;;;10.50;8.98;;;;;;;4.36;100.00;98344.16;4931616;29;20044;-77
2023/12/22 02:22:08;;;;;;;11.32;10.05;;;;;;;4.32;100.00;98349.78;4929714;29;20361;-78
2023/12/22 02:24:34;;;;;;;11.55;8.95;;;;;;;4.58;100.00;98350.13;4932080;29;20036;-78
2023/12/22 02:27:05;;;;;;;10.82;9.00;;;;;;;4.78;100.00;98351.78;4932331;29;20122;-79
2023/12/22 02:29:37;;;;;;;10.90;7.53;;;;;;;5.10;100.00;98341.94;4925557;29;20041;-78
2023/12/22 02:32:08;;;;;;;7.55;5.80;;;;;;;5.56;100.00;98348.22;4929582;29;20036;-79
2023/12/22 02:34:37;;;;;;;9.60;5.50;;;;;;;5.91;100.00;98353.66;4933265;29;20044;-78
2023/12/22 02:37:08;;;;;;;5.35;4.53;;;;;;;6.23;100.00;98349.84;4915715;29;20048;-78
2023/12/22 02:39:35;;;;;;;9.43;4.38;;;;;;;6.59;100.00;98351.59;4932747;29;20119;-79
2023/12/22 02:42:02;;;;;;;5.00;3.83;;;;;;;6.80;100.00;98352.13;4931985;29;20035;-79
2023/12/22 02:44:27;;;;;;;4.72;3.15;;;;;;;7.25;100.00;98340.75;4932613;29;20479;-80
2023/12/22 02:46:53;;;;;;;5.15;3.08;;;;;;;7.66;100.00;98331.38;4931945;29;20051;-79
2023/12/22 02:49:18;;;;;;;4.65;3.45;;;;;;;7.71;100.00;98329.13;4932504;29;20063;-79
2023/12/22 02:51:44;;;;;;;7.25;3.05;;;;;;;7.73;100.00;98327.16;4930302;29;20036;-79
2023/12/22 02:54:10;;;;;;;3.67;3.20;;;;;;;7.87;100.00;98305.59;4963985;28;20051;-79
2023/12/22 02:56:35;;;;;;;4.65;2.97;;;;;;;8.00;98.96;98336.69;4968805;28;20081;-78
2023/12/22 02:59:01;;;;;;;6.30;2.85;;;;;;;8.13;93.81;98332.63;4970688;28;20064;-78
2023/12/22 03:01:26;;;;;;;6.03;2.42;;;;;;;8.22;97.77;98336.13;4966488;28;20125;-78
2023/12/22 03:03:51;;;;;;;3.85;1.80;;;;;;;8.52;90.52;98330.38;4967183;28;20038;-79
2023/12/22 03:06:17;;;;;;;4.18;1.92;;;;;;;8.73;86.25;98335.19;4967800;28;20398;-79
2023/12/22 03:08:42;;;;;;;3.33;1.45;;;;;;;8.92;86.24;98313.03;4968114;28;20050;-78
2023/12/22 03:11:08;;;;;;;2.35;1.70;;;;;;;9.17;78.83;98327.03;4971040;28;20031;-80
2023/12/22 03:13:33;;;;;;;1.77;1.10;;;;;;;9.44;75.04;98292.47;4964351;28;20491;-79
2023/12/22 03:15:58;;;;;;;3.50;0.95;;;;;;;9.77;71.34;98319.63;4964741;28;20037;-79
2023/12/22 03:18:24;;;;;;;1.42;0.90;;;;;;;9.90;71.69;98335.69;4971597;28;20106;-79
2023/12/22 03:20:49;;;;;;;1.75;0.77;;;;;;;10.67;62.21;98319.13;4965510;28;20038;-79
2023/12/22 03:23:15;;;;;;;1.60;0.70;;;;;;;11.14;59.23;98338.47;4968722;28;20407;-78
2023/12/22 03:25:40;;;;;;;1.70;0.73;;;;;;;12.28;50.31;98304.72;4970826;28;20510;-79
2023/12/22 03:28:05;;;;;;;1.70;0.80;;;;;;;12.41;48.50;98336.66;4964458;28;20030;-80
2023/12/22 03:30:31;;;;;;;2.78;0.80;;;;;;;12.60;47.82;98340.56;4968000;28;20062;-79
2023/12/22 03:32:57;;;;;;;3.60;0.80;;;;;;;12.68;48.92;98338.59;4965654;28;20073;-80
2023/12/22 03:35:22;;;;;;;1.25;0.60;;;;;;;12.50;51.41;98324.94;4966594;28;20034;-79
2023/12/22 03:37:48;;;;;;;0.85;0.73;;;;;;;12.38;48.25;98330.88;4966718;28;20038;-79
2023/12/22 03:40:13;;;;;;;1.60;0.88;;;;;;;12.31;48.94;98328.97;4984083;28;20034;-80
2023/12/22 03:42:38;;;;;;;1.38;0.70;;;;;;;12.16;51.09;98311.47;4967992;28;20026;-80
2023/12/22 03:45:04;;;;;;;0.50;0.50;;;;;;;11.99;51.40;98331.16;4967321;28;20433;-79
2023/12/22 03:47:30;;;;;;;2.80;0.65;;;;;;;11.86;49.14;98329.97;4969555;28;20058;-80
2023/12/22 03:49:55;;;;;;;1.80;1.08;;;;;;;12.34;47.47;98322.50;4979062;28;20150;-79
2023/12/22 03:52:20;;;;;;;1.80;0.70;;;;;;;12.48;46.13;98345.50;4972226;28;20135;-78
2023/12/22 03:54:46;;;;;;;0.52;0.52;;;;;;;12.58;47.09;98343.38;4969068;28;20038;-79
2023/12/22 03:57:11;;;;;;;1.17;0.40;;;;;;;12.45;46.48;98348.50;4967929;28;20034;-79
2023/12/22 03:59:37;;;;;;;2.25;0.60;;;;;;;12.47;45.23;98343.84;4968261;28;20042;-78
2023/12/22 04:02:02;;;;;;;1.00;0.55;;;;;;;12.51;45.98;98339.81;4967845;28;20043;-79
2023/12/22 04:04:28;;;;;;;0.77;0.77;;;;;;;12.43;46.07;98345.19;4966759;28;20435;-78
2023/12/22 04:06:53;;;;;;;1.35;0.60;;;;;;;12.37;46.54;98348.56;4969029;28;20027;-78
2023/12/22 04:09:19;;;;;;;0.60;0.60;;;;;;;12.39;46.65;98351.88;4966187;28;20037;-78
2023/12/22 04:11:45;;;;;;;1.10;0.60;;;;;;;12.66;45.34;98345.09;4967362;28;20479;-78
2023/12/22 04:14:10;;;;;;;0.90;0.52;;;;;;;12.99;43.80;98319.00;4966708;28;20042;-77
2023/12/22 04:16:37;;;;;;;2.88;0.40;;;;;;;13.16;43.59;98330.19;4966338;28;20038;-78
2023/12/22 04:19:03;;;;;;;0.70;0.70;;;;;;;13.35;42.78;98325.09;4966743;28;20030;-79
2023/12/22 04:21:28;;;;;;;0.52;0.52;;;;;;;13.49;42.78;98323.34;4968878;28;20042;-78
2023/12/22 04:23:53;;;;;;;1.30;0.70;;;;;;;13.72;41.01;98326.63;4962445;28;20193;-78
2023/12/22 04:26:19;;;;;;;3.03;0.52;;;;;;;13.72;41.87;98325.81;4971695;28;20058;-79
2023/12/22 04:28:44;;;;;;;1.42;0.38;;;;;;;13.92;40.40;98324.09;4966608;28;20506;-78
2023/12/22 04:31:10;;;;;;;0.40;0.40;;;;;;;14.45;38.14;98317.28;4965973;28;20038;-79
2023/12/22 04:33:35;;;;;;;2.60;0.60;;;;;;;14.59;38.24;98310.22;4967343;28;20115;-80
2023/12/22 04:36:02;;;;;;;0.50;0.50;;;;;;;14.63;37.69;98308.78;4967535;28;20035;-79
2023/12/22 04:38:27;;;;;;;3.05;0.40;;;;;;;14.65;37.93;98301.47;4963045;28;20118;-79
2023/12/22 04:40:52;;;;;;;2.90;0.70;;;;;;;14.66;37.70;98300.44;4968943;28;20069;-79
2023/12/22 04:43:18;;;;;;;0.30;0.30;;;;;;;14.70;36.99;98309.66;4964492;28;20086;-80
2023/12/22 04:45:44;;;;;;;0.98;0.60;;;;;;;14.55;38.66;98316.94;4980345;28;20093;-79
2023/12/22 04:48:09;;;;;;;1.00;0.90;;;;;;;14.44;38.90;98338.72;4965531;28;20042;-79
2023/12/22 04:50:34;;;;;;;1.60;0.60;;;;;;;14.25;39.25;98349.03;4966600;28;20077;-78
2023/12/22 04:53:00;;;;;;;1.10;0.60;;;;;;;14.09;39.69;98359.09;4968024;28;20046;-79
2023/12/22 04:55:25;;;;;;;1.17;0.60;;;;;;;14.00;39.33;98377.00;4967593;28;20058;-79
2023/12/22 04:57:51;;;;;;;0.82;0.82;;;;;;;14.15;38.53;98380.38;4964736;28;20034;-78
2023/12/22 05:00:16;;;;;;;1.10;0.75;;;;;;;14.10;39.70;98382.78;4951328;28;20034;-78
2023/12/22 05:02:42;;;;;;;0.60;0.60;;;;;;;14.03;39.07;98389.88;4962951;28;20042;-79
2023/12/22 05:05:08;;;;;;;2.55;0.70;;;;;;;14.16;38.72;98389.97;4969041;28;20031;-79
2023/12/22 05:07:35;;;;;;;0.45;0.45;;;;;;;13.93;40.67;98392.03;4978538;28;20060;-78
2023/12/22 05:10:01;;;;;;;0.40;0.40;;;;;;;13.72;40.73;98400.03;4970293;28;20035;-78
2023/12/22 05:12:26;;;;;;;1.92;0.70;;;;;;;13.49;40.11;98395.72;4964526;28;20038;-79
2023/12/22 05:14:51;;;;;;;1.38;0.60;;;;;;;13.44;41.57;98386.72;4967579;28;20439;-79
2023/12/22 05:17:17;;;;;;;0.52;0.40;;;;;;;13.29;41.80;98397.38;4966389;28;20035;-80
2023/12/22 05:19:42;;;;;;;0.60;0.60;;;;;;;13.16;42.72;98378.69;4968279;28;20046;-80
2023/12/22 05:22:08;;;;;;;1.98;0.50;;;;;;;13.08;42.07;98371.63;4964338;28;20041;-79
2023/12/22 05:24:33;;;;;;;1.15;0.60;;;;;;;13.18;40.35;98389.94;4966305;28;20062;-80
2023/12/22 05:26:59;;;;;;;1.58;0.60;;;;;;;13.36;40.62;98400.09;4965462;28;20035;-79
2023/12/22 05:29:24;;;;;;;0.90;0.60;;;;;;;13.50;39.19;98386.78;4965649;28;20046;-79
2023/12/22 05:31:49;;;;;;;1.30;0.80;;;;;;;13.68;38.31;98388.16;4962135;28;20032;-79
2023/12/22 05:34:15;;;;;;;0.60;0.60;;;;;;;13.73;38.63;98388.41;4966701;28;20035;-80
2023/12/22 05:36:40;;;;;;;0.85;0.57;;;;;;;13.72;39.20;98386.78;4963447;28;20049;-80
2023/12/22 05:39:09;;;;;;;0.60;0.50;;;;;;;13.78;38.96;98386.03;4969063;28;20368;-80
2023/12/22 05:41:36;;;;;;;2.20;0.60;;;;;;;13.88;38.49;98389.16;4965651;28;20027;-79
2023/12/22 05:44:01;;;;;;;0.85;0.60;;;;;;;13.86;39.10;98391.16;4965905;28;20034;-79
2023/12/22 05:46:28;;;;;;;1.10;0.60;;;;;;;13.79;39.03;98380.50;4965054;28;20387;-78
2023/12/22 05:48:57;;;;;;;1.55;0.80;;;;;;;13.87;39.01;98382.22;4967897;28;20034;-76
2023/12/22 05:51:23;;;;;;;2.50;0.60;;;;;;;13.86;39.61;98369.97;4962102;28;20399;-76
2023/12/22 05:53:49;;;;;;;1.65;1.15;;;;;;;13.76;40.11;98369.47;4967153;28;20035;-76
2023/12/22 05:56:19;;;;;;;1.10;0.88;;;;;;;13.81;40.87;98367.88;4970116;28;20798;-75
2023/12/22 05:58:46;;;;;;;2.13;0.70;;;;;;;13.75;41.71;98370.47;4967647;28;20039;-76
2023/12/22 06:01:18;;;;;;;1.42;0.68;;;;;;;13.75;41.71;98375.78;4967176;28;20094;-78
2023/12/22 06:03:45;;;;;;;1.75;1.05;;;;;;;13.68;42.63;98383.69;4964977;28;20034;-76
2023/12/22 06:06:10;;;;;;;1.23;1.10;;;;;;;13.57;44.00;98383.38;4967793;28;20027;-77
2023/12/22 06:08:37;;;;;;;1.00;0.80;;;;;;;13.45;45.03;98388.34;4967542;28;20611;-77
2023/12/22 06:11:02;;;;;;;2.65;0.80;;;;;;;13.44;45.04;98398.13;4970051;28;20031;-76
2023/12/22 06:13:28;;;;;;;0.95;0.93;;;;;;;13.37;45.36;98402.53;4964906;28;20019;-75
2023/12/22 06:15:53;;;;;;;0.77;0.75;;;;;;;13.49;46.64;98406.34;4963988;28;20028;-75
2023/12/22 06:18:19;;;;;;;0.90;0.70;;;;;;;13.41;47.35;98417.06;4961869;28;20040;-76
2023/12/22 06:20:44;;;;;;;3.65;1.00;;;;;;;13.47;46.93;98418.97;4962053;28;20455;-76
2023/12/22 06:23:10;;;;;;;3.90;1.00;;;;;;;13.38;47.71;98422.75;4965941;28;20134;-76
2023/12/22 06:25:35;;;;;;;1.85;0.98;;;;;;;13.21;48.97;98431.94;4967050;28;20027;-76
2023/12/22 06:28:00;;;;;;;2.50;0.70;;;;;;;13.05;48.53;98432.94;4964497;28;20483;-77
2023/12/22 06:30:26;;;;;;;1.77;0.73;;;;;;;12.90;48.85;98436.63;4968821;28;20117;-77
2023/12/22 06:32:52;;;;;;;1.13;0.95;;;;;;;12.77;48.47;98436.44;4963458;28;20034;-77
2023/12/22 06:35:17;;;;;;;1.38;0.88;;;;;;;12.67;48.31;98442.81;4965304;28;20027;-77
2023/12/22 06:37:43;;;;;;;3.55;0.93;;;;;;;12.56;49.15;98435.34;4964307;28;20042;-77
2023/12/22 06:40:09;;;;;;;0.95;0.80;;;;;;;12.49;49.29;98446.84;4969265;28;20081;-78
2023/12/22 06:42:34;;;;;;;4.68;1.13;;;;;;;12.42;50.03;98446.75;4967378;28;20074;-78
2023/12/22 06:44:59;;;;;;;1.67;1.02;;;;;;;12.33;50.65;98453.13;4970458;28;20066;-78
2023/12/22 06:47:26;;;;;;;3.30;1.00;;;;;;;12.22;51.63;98453.56;4965520;28;20027;-77
2023/12/22 06:49:52;;;;;;;3.15;1.50;;;;;;;12.12;52.05;98442.44;4971663;28;20067;-78
2023/12/22 06:52:18;;;;;;;1.10;1.00;;;;;;;12.08;51.41;98449.06;4969713;28;20068;-79
2023/12/22 06:54:43;;;;;;;3.20;1.42;;;;;;;12.03;51.81;98444.31;4969083;28;20095;-78
2023/12/22 06:57:10;;;;;;;2.33;1.70;;;;;;;12.02;51.65;98463.00;4967028;28;20069;-78
2023/12/22 06:59:36;;;;;;;3.13;1.70;;;;;;;11.95;52.75;98459.44;4966384;28;20035;-77
2023/12/22 07:02:01;;;;;;;1.30;1.20;;;;;;;11.96;52.98;98458.44;4967809;28;20039;-79
2023/12/22 07:04:27;;;;;;;3.25;1.17;;;;;;;12.01;53.43;98471.94;4967884;28;20035;-80
2023/12/22 07:06:52;;;;;;;0.90;0.90;;;;;;;12.15;52.92;98464.03;4969926;28;20073;-77
2023/12/22 07:09:18;;;;;;;0.90;0.77;;;;;;;12.23;53.00;98455.22;4969924;28;20023;-78
2023/12/22 07:11:48;;;;;;;1.33;0.70;;;;;;;12.30;52.36;98448.22;4972036;28;20442;-78
2023/12/22 07:14:15;;;;;;;;;;;;;;;12.37;51.91;98462.34;4968924;28;20039;-80
2023/12/22 07:16:40;;;;;;;3.95;1.10;;;;;;;12.46;51.85;98465.72;4968365;28;20037;-78
2023/12/22 07:19:06;;;;;;;1.10;1.00;;;;;;;12.55;52.50;98461.97;4967868;28;20511;-78
2023/12/22 07:21:31;;;;;;;3.15;1.00;;;;;;;12.54;52.94;98463.84;4970608;28;20057;-79
2023/12/22 07:23:58;;;;;;;2.08;1.08;;;;;;;12.50;53.85;98462.53;4965217;28;20035;-79
2023/12/22 07:26:24;;;;;;;0.93;0.82;;;;;;;12.46;54.02;98466.56;4971324;28;20457;-78
2023/12/22 07:28:50;;;;;;;3.63;0.80;;;;;;;12.41;54.55;98458.34;4969092;28;20023;-77
2023/12/22 07:31:15;;;;;;;1.02;0.90;;;;;;;12.43;53.25;98451.03;4969121;28;20037;-78
2023/12/22 07:33:41;;;;;;;1.83;0.80;;;;;;;12.51;51.96;98450.94;4969250;28;20054;-79
2023/12/22 07:36:07;;;;;;;2.83;1.40;;;;;;;12.47;53.80;98449.69;4969142;28;20034;-78
2023/12/22 07:38:32;;;;;;;3.45;1.75;;;;;;;12.36;55.08;98455.41;4983177;28;20646;-78
2023/12/22 07:40:58;;;;;;;1.33;1.00;;;;;;;12.17;56.68;98456.75;4970075;28;20092;-79
2023/12/22 07:43:24;;;;;;;1.00;0.90;;;;;;;12.05;56.80;98454.72;4965713;28;20387;-79
2023/12/22 07:45:51;;;;;;;4.53;1.42;;;;;;;12.14;53.65;98458.91;4968165;28;20085;-78
2023/12/22 07:48:17;;;;;;;2.22;1.52;;;;;;;12.25;54.60;98467.25;4966578;28;20150;-77
2023/12/22 07:50:43;;;;;;;4.70;1.38;;;;;;;12.26;55.35;98481.28;4982495;28;20035;-77
2023/12/22 07:53:08;;;;;;;0.90;0.90;;;;;;;12.34;51.57;98481.22;4967507;28;20034;-78
2023/12/22 07:55:34;;;;;;;1.20;0.95;;;;;;;12.46;51.94;98498.31;4968669;28;20041;-78
2023/12/22 07:58:00;;;;;;;5.43;1.40;;;;;;;12.56;52.08;98493.56;4967436;28;20159;-79
2023/12/22 08:00:25;;;;;;;1.27;1.13;;;;;;;12.64;52.27;98487.38;4973347;28;20447;-77
2023/12/22 08:02:52;;;;;;;8.20;2.92;;;;;;;12.30;57.09;98488.72;4971116;28;20051;-79
2023/12/22 08:05:18;;;;;;;5.97;3.47;;;;;;;11.99;59.30;98509.13;4981396;28;20070;-78
2023/12/22 08:07:44;;;;;;;7.47;2.97;;;;;;;11.57;62.15;98501.63;4973519;28;20034;-77
2023/12/22 08:10:10;;;;;;;4.85;3.30;;;;;;;11.30;62.76;98515.31;4978139;28;20026;-78
2023/12/22 08:12:35;;;;;;;5.78;2.80;;;;;;;11.13;64.42;98519.03;4974148;28;20063;-78
2023/12/22 08:15:01;;;;;;;7.40;2.95;;;;;;;11.06;64.46;98535.56;4975691;28;20065;-78
2023/12/22 08:17:27;;;;;;;5.00;2.63;;;;;;;11.03;62.45;98541.16;4982479;28;20162;-78
2023/12/22 08:19:53;;;;;;;2.63;2.10;;;;;;;11.14;62.92;98536.50;4973046;28;20031;-77
2023/12/22 08:22:18;;;;;;;3.92;1.98;;;;;;;11.24;62.32;98558.25;5009838;22;20376;-80
2023/12/22 08:24:44;;;;;;;2.60;1.98;;;;;;;11.34;61.68;98558.88;5006826;28;20034;-79
2023/12/22 08:27:09;;;;;;;5.28;1.80;;;;;;;11.45;62.07;98571.69;5001692;28;20546;-79
2023/12/22 08:29:35;;;;;;;4.75;1.48;;;;;;;11.55;61.96;98551.16;5006339;28;20030;-79
2023/12/22 08:32:01;;;;;;;3.15;1.67;;;;;;;11.64;62.13;98566.00;5000689;28;20812;-78
2023/12/22 08:34:27;;;;;;;2.80;1.42;;;;;;;11.73;62.39;98580.81;5007197;28;20053;-78
2023/12/22 08:36:53;;;;;;;2.78;1.25;;;;;;;11.82;62.59;98578.97;5002737;28;20042;-80
2023/12/22 08:39:18;;;;;;;1.58;1.20;;;;;;;11.96;62.58;98574.78;5005798;28;20040;-80
2023/12/22 08:41:45;;;;;;;2.67;1.52;;;;;;;12.07;62.86;98566.44;5004913;28;20108;-80
2023/12/22 08:44:11;;;;;;;4.25;1.10;;;;;;;12.16;63.36;98575.94;5006753;28;20466;-79
2023/12/22 08:46:36;;;;;;;1.98;1.10;;;;;;;12.30;63.15;98580.47;5003543;28;20026;-81
2023/12/22 08:49:02;;;;;;;1.73;1.10;;;;;;;12.36;63.38;98579.75;5009619;28;20026;-79
2023/12/22 08:51:28;;;;;;;5.65;1.30;;;;;;;12.38;63.61;98564.50;5009169;28;20034;-78
2023/12/22 08:53:55;;;;;;;1.95;1.10;;;;;;;12.42;63.95;98559.69;5004397;28;20027;-81
2023/12/22 08:56:24;;;;;;;1.25;1.15;;;;;;;12.45;63.81;98560.16;5008232;28;20046;-79
2023/12/22 08:58:54;;;;;;;3.17;1.20;;;;;;;12.50;63.91;98578.13;5008539;28;20025;-80
2023/12/22 09:01:21;;;;;;;1.50;1.20;;;;;;;12.54;63.86;98574.97;5010961;28;20089;-79
2023/12/22 09:03:48;;;;;;;3.58;1.08;;;;;;;12.59;64.00;98567.31;5006653;28;20150;-78
2023/12/22 09:06:17;;;;;;;1.67;1.25;;;;;;;12.64;64.57;98575.53;5005387;28;20045;-79
2023/12/22 09:08:44;;;;;;;2.38;1.48;;;;;;;12.67;65.15;98582.28;5005618;28;20515;-80
2023/12/22 09:11:16;;;;;;;7.80;1.88;;;;;;;12.62;64.81;98580.19;5008618;28;20029;-80
2023/12/22 09:13:42;;;;;;;4.57;1.80;;;;;;;12.62;64.23;98577.53;5010451;28;20117;-80
2023/12/22 09:16:09;;;;;;;2.63;1.80;;;;;;;12.67;64.93;98579.63;5014713;28;20057;-80
2023/12/22 09:18:35;;;;;;;4.32;2.10;;;;;;;12.68;65.17;98574.16;5012970;28;20489;-80
2023/12/22 09:21:02;;;;;;;5.90;2.05;;;;;;;12.75;64.65;98581.41;5010743;28;20619;-80
2023/12/22 09:23:28;;;;;;;2.60;1.77;;;;;;;12.78;64.08;98597.75;5007966;28;20468;-80
2023/12/22 09:25:54;;;;;;;2.15;1.75;;;;;;;12.85;63.75;98603.13;5003531;28;20482;-78
2023/12/22 09:28:20;;;;;;;4.40;1.70;;;;;;;12.91;63.70;98599.75;5011640;28;20077;-78
2023/12/22 09:30:45;;;;;;;2.70;1.77;;;;;;;12.95;63.46;98595.78;5011054;28;20060;-80
2023/12/22 09:33:11;;;;;;;2.38;1.70;;;;;;;12.98;64.08;98608.63;5000584;28;20036;-79
2023/12/22 09:35:41;;;;;;;1.95;1.73;;;;;;;13.03;63.86;98600.97;5006337;28;20140;-79
2023/12/22 09:38:07;;;;;;;3.03;1.48;;;;;;;13.09;63.25;98595.75;5000408;28;20026;-78
2023/12/22 09:40:34;;;;;;;3.22;1.60;;;;;;;13.15;63.71;98596.06;5003374;28;20536;-79
2023/12/22 09:43:01;;;;;;;2.60;1.52;;;;;;;13.21;62.82;98587.38;5004393;28;20030;-79
2023/12/22 09:45:30;;;;;;;3.30;1.50;;;;;;;13.28;62.96;98591.78;5002760;28;20467;-79
2023/12/22 09:47:56;;;;;;;1.63;1.27;;;;;;;13.34;62.40;98598.19;5000805;28;20033;-79
2023/12/22 09:50:23;;;;;;;1.45;1.00;;;;;;;13.39;61.60;98585.19;5000299;28;20470;-80
2023/12/22 09:52:48;;;;;;;1.02;0.95;;;;;;;13.48;60.51;98590.22;4998985;28;20061;-80
2023/12/22 09:55:14;;;;;;;5.90;1.30;;;;;;;13.55;60.88;98594.78;5004001;28;20445;-80
2023/12/22 09:57:42;;;;;;;2.42;1.60;;;;;;;13.56;60.66;98591.13;5005885;28;20398;-80
2023/12/22 10:00:12;;;;;;;3.80;1.40;;;;;;;13.61;60.45;98591.41;5004883;28;20450;-79
2023/12/22 10:02:39;;;;;;;3.38;1.60;;;;;;;13.63;60.68;98576.13;4996792;28;20447;-81
2023/12/22 10:05:05;;;;;;;3.33;1.40;;;;;;;13.63;61.25;98571.63;5007937;28;20462;-79
2023/12/22 10:07:34;;;;;;;2.15;1.60;;;;;;;13.64;60.83;98556.56;5001460;28;20435;-80
2023/12/22 10:10:00;;;;;;;2.95;1.90;;;;;;;13.66;61.27;98560.69;5001280;28;20041;-79
2023/12/22 10:12:29;;;;;;;1.80;1.70;;;;;;;13.71;60.44;98552.16;5003839;28;20453;-80
2023/12/22 10:14:55;;;;;;;5.07;1.75;;;;;;;13.78;59.63;98558.38;5002109;28;20462;-79
2023/12/22 10:17:21;;;;;;;4.63;1.52;;;;;;;13.89;59.21;98563.19;5006734;28;20030;-79
2023/12/22 10:19:46;;;;;;;3.67;1.58;;;;;;;13.88;60.33;98546.44;5004140;28;20371;-80
2023/12/22 10:22:12;;;;;;;2.97;1.30;;;;;;;14.00;60.19;98551.25;5003915;28;20046;-80
2023/12/22 10:24:44;;;;;;;3.90;1.10;;;;;;;14.10;59.04;98546.44;5007558;28;20543;-80
2023/12/22 10:27:11;;;;;;;1.20;1.02;;;;;;;14.21;58.79;98527.34;5002348;28;20084;-79
2023/12/22 10:29:37;;;;;;;4.70;1.27;;;;;;;14.24;58.82;98522.50;5004606;28;20030;-79
2023/12/22 10:32:04;;;;;;;2.72;1.15;;;;;;;14.27;57.82;98522.09;5007368;28;20069;-78
2023/12/22 10:34:30;;;;;;;1.25;0.82;;;;;;;14.31;56.88;98523.34;5002523;28;20033;-78
2023/12/22 10:36:56;;;;;;;2.30;0.70;;;;;;;14.40;56.07;98526.75;5006574;28;20061;-80
2023/12/22 10:39:22;;;;;;;3.22;0.73;;;;;;;14.48;56.63;98518.66;5005255;28;20033;-80
2023/12/22 10:41:51;;;;;;;0.95;0.73;;;;;;;14.50;56.64;98523.75;5006057;28;20026;-80
2023/12/22 10:44:20;;;;;;;3.60;0.90;;;;;;;14.52;56.49;98513.75;5003664;28;20044;-81
2023/12/22 10:46:47;;;;;;;0.80;0.80;;;;;;;14.51;56.80;98506.81;5006690;28;20366;-80
2023/12/22 10:49:12;;;;;;;1.67;0.98;;;;;;;14.48;56.33;98502.72;5002196;28;20490;-79
2023/12/22 10:51:38;;;;;;;7.50;1.35;;;;;;;14.48;56.53;98515.19;5001992;28;20109;-80
2023/12/22 10:54:05;;;;;;;2.35;1.50;;;;;;;14.56;55.96;98509.69;5003050;28;20117;-78
2023/12/22 10:56:31;;;;;;;2.47;1.15;;;;;;;14.52;56.66;98496.00;5003705;28;20103;-79
2023/12/22 10:58:58;;;;;;;0.98;0.85;;;;;;;14.51;55.57;98490.88;5004476;28;20022;-80
2023/12/22 11:01:29;;;;;;;2.20;0.85;;;;;;;14.56;55.66;98496.44;5007413;28;20042;-79
2023/12/22 11:04:01;;;;;;;2.50;1.13;;;;;;;14.56;56.44;98493.78;5003043;28;20040;-80
2023/12/22 11:06:29;;;;;;;1.10;1.00;;;;;;;14.57;56.03;98476.84;5006393;28;20038;-80
2023/12/22 11:08:56;;;;;;;16.50;2.58;;;;;;;14.56;56.07;98477.84;5000182;28;20392;-80
2023/12/22 11:11:34;;;;;;;9.18;1.40;;;;;;;14.56;55.58;98483.16;5006846;28;20052;-80
2023/12/22 11:14:00;;;;;;;3.15;1.00;;;;;;;14.57;55.95;98490.09;5002878;28;20092;-79
2023/12/22 11:16:28;;;;;;;1.20;0.90;;;;;;;14.61;55.44;98486.03;5003006;28;20042;-80
2023/12/22 11:18:55;;;;;;;0.80;0.80;;;;;;;14.59;55.17;98472.16;5005865;28;20494;-79
2023/12/22 11:21:24;;;;;;;8.25;1.30;;;;;;;14.58;55.29;98486.44;5006496;28;20245;-80
2023/12/22 11:23:51;;;;;;;5.75;1.50;;;;;;;14.60;54.69;98487.09;5002888;28;20038;-80
2023/12/22 11:26:18;;;;;;;4.97;1.75;;;;;;;14.61;55.49;98475.41;5006631;28;20034;-80
2023/12/22 11:28:49;;;;;;;4.90;1.50;;;;;;;14.62;55.87;98477.91;5004653;28;20061;-79